createdAt,value
2022-08-30T00:01:03.110Z,100512.97
2022-08-30T00:03:32.480Z,100516.59
2022-08-30T00:06:00.629Z,100516.25
2022-08-30T00:08:27.263Z,100516.06
2022-08-30T00:10:54.146Z,100508.81
2022-08-30T00:13:22.158Z,100508.81
2022-08-30T00:15:48.893Z,100506.38
2022-08-30T00:18:18.319Z,100504.25
2022-08-30T00:20:47.570Z,100513.38
2022-08-30T00:23:14.685Z,100510.66
2022-08-30T00:25:42.561Z,100517.69
2022-08-30T00:28:09.855Z,100522.22
2022-08-30T00:30:38.051Z,100527.81
2022-08-30T00:33:05.757Z,100526.38
2022-08-30T00:35:32.387Z,100527.38
2022-08-30T00:37:59.119Z,100529.00
2022-08-30T00:40:27.643Z,100519.00
2022-08-30T00:42:59.548Z,100530.03
2022-08-30T00:45:32.915Z,100521.56
2022-08-30T00:48:00.578Z,100517.41
2022-08-30T00:50:32.844Z,100519.00
2022-08-30T00:53:02.692Z,100516.53
2022-08-30T00:55:29.836Z,100518.38
2022-08-30T00:58:00.272Z,100517.72
2022-08-30T01:00:29.301Z,100512.47
2022-08-30T01:02:56.275Z,100507.38
2022-08-30T01:05:23.979Z,100508.28
2022-08-30T01:07:50.975Z,100506.41
2022-08-30T01:10:17.890Z,100503.59
2022-08-30T01:12:46.134Z,100499.81
2022-08-30T01:15:17.238Z,100501.44
2022-08-30T01:17:47.706Z,100499.13
2022-08-30T01:20:21.858Z,100505.38
2022-08-30T01:22:51.542Z,100507.41
2022-08-30T01:25:27.957Z,100508.63
2022-08-30T01:28:01.616Z,100507.84
2022-08-30T01:30:30.046Z,100504.28
2022-08-30T01:33:00.078Z,100511.69
2022-08-30T01:35:28.002Z,100504.19
2022-08-30T01:37:54.811Z,100506.47
2022-08-30T01:40:24.092Z,100514.06
2022-08-30T01:42:50.796Z,100505.84
2022-08-30T01:45:17.373Z,100507.09
2022-08-30T01:47:44.066Z,100511.47
2022-08-30T01:50:11.385Z,100507.78
2022-08-30T01:52:38.261Z,100510.44
2022-08-30T01:55:05.983Z,100508.94
2022-08-30T01:57:32.590Z,100501.28
2022-08-30T01:59:59.171Z,100509.41
2022-08-30T02:02:29.266Z,100520.44
2022-08-30T02:04:57.266Z,100509.72
2022-08-30T02:07:25.658Z,100523.78
2022-08-30T02:09:54.407Z,100519.53
2022-08-30T02:12:22.340Z,100520.31
2022-08-30T02:14:49.216Z,100526.56
2022-08-30T02:17:16.419Z,100523.84
2022-08-30T02:19:43.446Z,100534.94
2022-08-30T02:22:10.712Z,100537.94
2022-08-30T02:24:37.538Z,100526.91
2022-08-30T02:27:04.816Z,100525.69
2022-08-30T02:29:31.658Z,100525.50
2022-08-30T02:31:58.373Z,100529.13
2022-08-30T02:34:24.975Z,100529.00
2022-08-30T02:36:51.659Z,100526.66
2022-08-30T02:39:18.252Z,100534.72
2022-08-30T02:41:44.962Z,100517.31
2022-08-30T02:44:11.541Z,100526.47
2022-08-30T02:46:38.804Z,100521.47
2022-08-30T02:49:32.057Z,100533.38
2022-08-30T02:51:55.357Z,100539.22
2022-08-30T02:54:21.903Z,100532.97
2022-08-30T02:56:49.110Z,100525.88
2022-08-30T02:59:17.375Z,100518.47
2022-08-30T03:01:44.272Z,100519.34
2022-08-30T03:04:10.915Z,100530.81
2022-08-30T03:06:37.662Z,100519.44
2022-08-30T03:09:04.321Z,100529.72
2022-08-30T03:11:31.060Z,100529.13
2022-08-30T03:13:57.679Z,100529.09
2022-08-30T03:16:24.343Z,100529.28
2022-08-30T03:18:51.082Z,100525.94
2022-08-30T03:21:18.055Z,100516.72
2022-08-30T03:23:44.855Z,100532.59
2022-08-30T03:26:15.084Z,100532.59
2022-08-30T03:28:43.164Z,100525.09
2022-08-30T03:31:10.467Z,100527.97
2022-08-30T03:33:39.986Z,100531.56
2022-08-30T03:36:08.248Z,100519.28
2022-08-30T03:38:35.058Z,100527.91
2022-08-30T03:41:01.857Z,100534.09
2022-08-30T03:43:28.623Z,100535.50
2022-08-30T03:45:56.976Z,100534.91
2022-08-30T03:48:23.623Z,100529.53
2022-08-30T03:50:50.209Z,100529.47
2022-08-30T03:53:16.996Z,100529.22
2022-08-30T03:55:43.818Z,100536.00
2022-08-30T03:58:10.597Z,100538.03
2022-08-30T04:00:37.358Z,100538.38
2022-08-30T04:03:03.996Z,100533.53
2022-08-30T04:05:31.075Z,100530.81
2022-08-30T04:07:58.076Z,100537.31
2022-08-30T04:10:24.704Z,100534.84
2022-08-30T04:12:51.298Z,100539.50
2022-08-30T04:15:19.639Z,100542.50
2022-08-30T04:17:47.000Z,100532.19
2022-08-30T04:20:13.914Z,100535.91
2022-08-30T04:22:40.702Z,100535.66
2022-08-30T04:25:07.934Z,100546.13
2022-08-30T04:27:42.091Z,100546.94
2022-08-30T04:30:09.222Z,100555.13
2022-08-30T04:32:36.065Z,100544.44
2022-08-30T04:35:02.684Z,100552.72
2022-08-30T04:37:29.282Z,100550.00
2022-08-30T04:40:00.809Z,100559.34
2022-08-30T04:42:31.632Z,100566.13
2022-08-30T04:45:00.208Z,100561.66
2022-08-30T04:47:26.932Z,100561.28
2022-08-30T04:49:53.950Z,100572.81
2022-08-30T04:52:20.532Z,100561.97
2022-08-30T04:54:47.082Z,100564.34
2022-08-30T04:57:13.911Z,100570.81
2022-08-30T04:59:40.771Z,100570.44
2022-08-30T05:02:07.334Z,100568.69
2022-08-30T05:04:33.910Z,100567.09
2022-08-30T05:07:00.441Z,100570.53
2022-08-30T05:09:27.017Z,100576.00
2022-08-30T05:11:53.925Z,100571.97
2022-08-30T05:14:20.506Z,100570.09
2022-08-30T05:16:47.079Z,100577.50
2022-08-30T05:19:13.705Z,100568.56
2022-08-30T05:21:41.380Z,100574.22
2022-08-30T05:24:08.131Z,100574.47
2022-08-30T05:26:37.385Z,100570.72
2022-08-30T05:29:04.043Z,100582.16
2022-08-30T05:31:36.346Z,100581.25
2022-08-30T05:34:04.383Z,100583.22
2022-08-30T05:36:34.223Z,100585.41
2022-08-30T05:39:01.310Z,100588.59
2022-08-30T05:41:28.707Z,100589.78
2022-08-30T05:43:59.094Z,100598.50
2022-08-30T05:46:29.556Z,100591.69
2022-08-30T05:48:57.493Z,100588.06
2022-08-30T05:51:26.761Z,100591.88
2022-08-30T05:53:53.790Z,100587.25
2022-08-30T05:56:24.755Z,100580.13
2022-08-30T05:58:52.392Z,100586.63
2022-08-30T06:01:21.696Z,100591.16
2022-08-30T06:03:48.921Z,100596.78
2022-08-30T06:06:16.093Z,100591.31
2022-08-30T06:08:45.732Z,100596.97
2022-08-30T06:11:13.759Z,100585.97
2022-08-30T06:13:42.052Z,100598.13
2022-08-30T06:16:11.891Z,100598.88
2022-08-30T06:18:38.587Z,100603.88
2022-08-30T06:21:05.493Z,100596.75
2022-08-30T06:23:32.116Z,100608.00
2022-08-30T06:26:05.042Z,100609.13
2022-08-30T06:28:32.278Z,100604.38
2022-08-30T06:30:59.049Z,100606.16
2022-08-30T06:33:26.071Z,100597.38
2022-08-30T06:35:59.222Z,100608.53
2022-08-30T06:38:26.968Z,100584.50
2022-08-30T06:40:53.693Z,100614.72
2022-08-30T06:43:20.882Z,100619.25
2022-08-30T06:45:47.746Z,100613.63
2022-08-30T06:48:14.446Z,100602.00
2022-08-30T06:50:42.184Z,100615.28
2022-08-30T06:53:09.869Z,100609.59
2022-08-30T06:55:37.413Z,100621.66
2022-08-30T06:58:04.556Z,100619.03
2022-08-30T07:00:31.385Z,100619.78
2022-08-30T07:02:59.149Z,100626.09
2022-08-30T07:05:26.116Z,100623.25
2022-08-30T07:07:55.804Z,100629.16
2022-08-30T07:10:22.450Z,100624.59
2022-08-30T07:12:49.262Z,100635.19
2022-08-30T07:15:16.639Z,100625.28
2022-08-30T07:18:01.526Z,100633.00
2022-08-30T07:20:28.108Z,100624.63
2022-08-30T07:23:07.088Z,100630.09
2022-08-30T07:25:33.712Z,100633.09
2022-08-30T07:28:00.300Z,100636.13
2022-08-30T07:30:27.104Z,100626.47
2022-08-30T07:32:53.821Z,100638.84
2022-08-30T07:35:20.363Z,100639.00
2022-08-30T07:37:47.000Z,100647.03
2022-08-30T07:40:13.654Z,100638.13
2022-08-30T07:42:41.078Z,100643.44
2022-08-30T07:45:09.085Z,100646.31
2022-08-30T07:47:36.340Z,100650.28
2022-08-30T07:50:04.983Z,100650.28
2022-08-30T07:52:32.268Z,100644.09
2022-08-30T07:55:00.031Z,100647.69
2022-08-30T07:57:27.088Z,100656.41
2022-08-30T07:59:53.739Z,68515.09
2022-08-30T08:02:20.475Z,68515.09
2022-08-30T08:04:48.580Z,68515.09
2022-08-30T08:07:15.588Z,68515.09
2022-08-30T08:09:42.217Z,68515.09
2022-08-30T08:12:09.062Z,68515.09
2022-08-30T08:14:36.391Z,68515.09
2022-08-30T08:17:03.179Z,68515.09
2022-08-30T08:19:29.728Z,68515.09
2022-08-30T08:22:19.474Z,68515.09
2022-08-30T08:24:46.506Z,68515.09
2022-08-30T08:27:13.096Z,68515.09
2022-08-30T08:29:39.648Z,68515.09
2022-08-30T08:32:06.282Z,68515.09
2022-08-30T08:34:32.837Z,68515.09
2022-08-30T08:36:59.387Z,68515.09
2022-08-30T08:39:26.032Z,68515.09
2022-08-30T08:41:59.062Z,68515.09
2022-08-30T08:44:35.060Z,68515.09
2022-08-30T08:47:35.178Z,68515.09
2022-08-30T08:50:04.817Z,68515.09
2022-08-30T08:53:06.811Z,68515.09
2022-08-30T08:55:33.874Z,68515.09
2022-08-30T08:58:01.923Z,68515.09
2022-08-30T09:00:30.067Z,68515.09
2022-08-30T09:03:04.416Z,68515.09
2022-08-30T09:05:40.526Z,68515.09
2022-08-30T09:08:11.746Z,100681.53
2022-08-30T09:10:50.510Z,100674.78
2022-08-30T09:13:19.123Z,100669.94
2022-08-30T09:15:49.950Z,100682.84
2022-08-30T09:18:20.904Z,100669.44
2022-08-30T09:20:49.899Z,100675.31
2022-08-30T09:23:16.383Z,100668.84
2022-08-30T09:25:59.038Z,100680.63
2022-08-30T09:28:31.610Z,100676.00
2022-08-30T09:31:05.974Z,100674.72
2022-08-30T09:33:37.149Z,100666.53
2022-08-30T09:36:20.562Z,100671.47
2022-08-30T09:38:58.310Z,100677.53
2022-08-30T09:41:29.752Z,100670.69
2022-08-30T09:44:30.580Z,100674.34
2022-08-30T09:46:59.456Z,100660.31
2022-08-30T09:49:41.432Z,100657.56
2022-08-30T09:52:32.736Z,100667.50
2022-08-30T09:55:23.469Z,100660.50
2022-08-30T10:01:11.973Z,100653.53
2022-08-30T10:04:12.554Z,100653.84
2022-08-30T10:06:45.858Z,100652.97
2022-08-30T10:09:37.071Z,100652.78
2022-08-30T10:12:17.162Z,100652.22
2022-08-30T10:15:10.395Z,100651.28
2022-08-30T10:25:16.380Z,100646.59
2022-08-30T10:27:59.033Z,100655.22
2022-08-30T10:30:25.807Z,100651.34
2022-08-30T10:32:58.252Z,100644.84
2022-08-30T10:35:29.030Z,100650.34
2022-08-30T10:38:08.496Z,100648.31
2022-08-30T10:40:58.028Z,100642.75
2022-08-30T10:43:33.592Z,100640.19
2022-08-30T10:46:05.832Z,100648.88
2022-08-30T10:48:44.353Z,100647.91
2022-08-30T10:51:25.099Z,100642.91
2022-08-30T10:53:56.897Z,100631.44
2022-08-30T10:56:26.922Z,100631.09
2022-08-30T10:58:54.859Z,100633.94
2022-08-30T11:01:51.068Z,100638.00
2022-08-30T11:04:45.564Z,100626.59
2022-08-30T11:07:53.116Z,100632.69
2022-08-30T11:10:38.141Z,100629.94
2022-08-30T11:13:15.649Z,100622.59
2022-08-30T11:15:57.399Z,100630.09
2022-08-30T11:18:26.319Z,100624.84
2022-08-30T11:20:56.359Z,100624.91
2022-08-30T11:23:33.066Z,100619.44
2022-08-30T11:26:05.888Z,100620.41
2022-08-30T11:28:37.098Z,100620.78
2022-08-30T11:31:23.619Z,100617.41
2022-08-30T11:33:57.054Z,100618.97
2022-08-30T11:36:37.364Z,68515.09
2022-08-30T11:39:32.669Z,68515.09
2022-08-30T11:42:29.628Z,68515.09
2022-08-30T11:45:24.995Z,100613.03
2022-08-30T11:47:55.005Z,68515.09
2022-08-30T11:50:33.423Z,68515.09
2022-08-30T11:53:15.028Z,68515.09
2022-08-30T11:55:48.733Z,68515.09
2022-08-30T11:59:10.557Z,68515.09
2022-08-30T12:01:49.853Z,68515.09
2022-08-30T12:04:18.032Z,68515.09
2022-08-30T12:06:59.135Z,100604.50
2022-08-30T12:09:26.336Z,100603.22
2022-08-30T12:12:04.098Z,100596.09
2022-08-30T12:14:33.445Z,100607.16
2022-08-30T12:17:21.033Z,100611.91
2022-08-30T12:19:50.538Z,100587.06
2022-08-30T12:22:18.475Z,100593.69
2022-08-30T12:24:51.888Z,100597.56
2022-08-30T12:27:32.655Z,100596.16
2022-08-30T12:30:07.198Z,100597.91
2022-08-30T12:32:43.071Z,68515.09
2022-08-30T12:35:20.155Z,68515.09
2022-08-30T12:37:59.992Z,68515.09
2022-08-30T12:40:27.816Z,68515.09
2022-08-30T12:43:02.100Z,68515.09
2022-08-30T12:45:33.852Z,68515.09
2022-08-30T12:48:11.645Z,68515.09
2022-08-30T12:50:51.933Z,100567.50
2022-08-30T12:53:32.773Z,68515.09
2022-08-30T12:56:09.319Z,68515.09
2022-08-30T12:58:46.679Z,68515.09
2022-08-30T13:01:13.389Z,68515.09
2022-08-30T13:03:41.012Z,100567.50
2022-08-30T13:06:08.628Z,100553.97
2022-08-30T13:08:44.487Z,68515.09
2022-08-30T13:11:24.811Z,68515.09
2022-08-30T13:14:29.952Z,100559.56
2022-08-30T13:17:27.060Z,100552.16
2022-08-30T13:20:07.883Z,100549.47
2022-08-30T13:22:37.985Z,100544.81
2022-08-30T13:25:06.544Z,68515.09
2022-08-30T13:27:36.952Z,100544.81
2022-08-30T13:30:16.181Z,100539.47
2022-08-30T13:32:43.387Z,100526.72
2022-08-30T13:35:11.265Z,100518.72
2022-08-30T13:37:49.984Z,100518.41
2022-08-30T13:40:18.089Z,100529.38
2022-08-30T13:42:45.215Z,100522.38
2022-08-30T13:48:02.071Z,100523.19
2022-08-30T13:50:28.657Z,100512.47
2022-08-30T13:52:57.338Z,100519.63
2022-08-30T13:55:23.915Z,100500.69
2022-08-30T13:57:54.438Z,100508.81
2022-08-30T14:00:22.499Z,100508.22
2022-08-30T14:02:54.549Z,100508.72
2022-08-30T14:05:48.131Z,100506.28
2022-08-30T14:11:06.363Z,100498.88
2022-08-30T14:13:33.053Z,100505.88
2022-08-30T14:18:48.250Z,100496.16
2022-08-30T14:21:15.810Z,100501.50
2022-08-30T14:23:42.310Z,100491.59
2022-08-30T14:26:22.432Z,100496.72
2022-08-30T14:28:51.442Z,100496.25
2022-08-30T14:31:18.917Z,100492.66
2022-08-30T14:33:46.924Z,100493.28
2022-08-30T14:36:15.718Z,100481.88
2022-08-30T14:38:43.131Z,100482.81
2022-08-30T14:41:10.915Z,100492.97
2022-08-30T14:43:40.351Z,100496.75
2022-08-30T14:46:08.831Z,100485.00
2022-08-30T14:48:37.455Z,68515.09
2022-08-30T14:51:16.671Z,68515.09
2022-08-30T14:53:43.692Z,68515.09
2022-08-30T14:56:12.958Z,68515.09
2022-08-30T14:58:39.474Z,68515.09
2022-08-30T15:01:12.382Z,100485.50
2022-08-30T15:03:40.167Z,100484.34
2022-08-30T15:06:07.655Z,100486.06
2022-08-30T15:08:36.514Z,100489.13
2022-08-30T15:11:14.465Z,68515.09
2022-08-30T15:13:44.397Z,100477.34
2022-08-30T15:16:28.452Z,100471.28
2022-08-30T15:18:56.949Z,100482.44
2022-08-30T15:21:28.086Z,100481.13
2022-08-30T15:23:54.796Z,100476.50
2022-08-30T15:26:22.532Z,100460.44
2022-08-30T15:28:50.660Z,100468.53
2022-08-30T15:31:22.837Z,100478.81
2022-08-30T15:33:49.652Z,100475.66
2022-08-30T15:36:16.953Z,100473.75
2022-08-30T15:38:44.704Z,100473.56
2022-08-30T15:41:12.980Z,100479.06
2022-08-30T15:43:41.116Z,100490.09
2022-08-30T15:46:30.346Z,100476.97
2022-08-30T15:49:00.383Z,100474.22
2022-08-30T15:51:26.968Z,100471.13
2022-08-30T15:53:54.286Z,100462.00
2022-08-30T15:56:20.873Z,100460.63
2022-08-30T15:58:48.441Z,100464.84
2022-08-30T16:01:16.028Z,100466.28
2022-08-30T16:03:46.919Z,100458.25
2022-08-30T16:06:20.759Z,100466.63
2022-08-30T16:08:49.015Z,100462.38
2022-08-30T16:11:19.056Z,100463.75
2022-08-30T16:13:49.544Z,100456.03
2022-08-30T16:16:17.894Z,100457.59
2022-08-30T16:18:44.518Z,100456.47
2022-08-30T16:21:15.179Z,100424.41
2022-08-30T16:23:43.665Z,100459.53
2022-08-30T16:26:13.683Z,100454.63
2022-08-30T16:28:44.103Z,100448.50
2022-08-30T16:31:10.765Z,100455.00
2022-08-30T16:33:43.083Z,100450.38
2022-08-30T16:36:11.926Z,100460.16
2022-08-30T16:38:39.562Z,100453.72
2022-08-30T16:41:09.554Z,100451.84
2022-08-30T16:43:37.396Z,100454.22
2022-08-30T16:46:06.937Z,100451.22
2022-08-30T16:48:33.948Z,100463.22
2022-08-30T16:51:01.477Z,100454.88
2022-08-30T16:53:28.064Z,100441.63
2022-08-30T16:55:54.760Z,100450.91
2022-08-30T16:58:22.400Z,100453.78
2022-08-30T17:00:52.066Z,100453.78
2022-08-30T17:03:19.090Z,100462.13
2022-08-30T17:05:47.972Z,100464.03
2022-08-30T17:08:16.732Z,100471.25
2022-08-30T17:10:43.860Z,100473.00
2022-08-30T17:13:16.669Z,100469.53
2022-08-30T17:15:48.286Z,100465.28
2022-08-30T17:18:17.652Z,100469.69
2022-08-30T17:20:45.443Z,100477.88
2022-08-30T17:23:12.464Z,100468.28
2022-08-30T17:25:40.321Z,100478.03
2022-08-30T17:28:08.060Z,100470.63
2022-08-30T17:30:35.555Z,100470.94
2022-08-30T17:33:03.008Z,100479.59
2022-08-30T17:35:29.614Z,100484.31
2022-08-30T17:37:57.187Z,100485.59
2022-08-30T17:40:24.141Z,100490.31
2022-08-30T17:42:51.174Z,100493.75
2022-08-30T17:45:18.275Z,100489.97
2022-08-30T17:47:45.367Z,100499.13
2022-08-30T17:50:14.342Z,100495.00
2022-08-30T17:52:42.271Z,100506.19
2022-08-30T17:55:10.097Z,100507.88
2022-08-30T17:57:36.940Z,100511.19
2022-08-30T18:00:08.821Z,100508.22
2022-08-30T18:02:35.429Z,100509.72
2022-08-30T18:05:04.822Z,100509.59
2022-08-30T18:07:31.423Z,100525.41
2022-08-30T18:09:59.009Z,100525.63
2022-08-30T18:12:26.236Z,100532.56
2022-08-30T18:14:53.979Z,100525.97
2022-08-30T18:17:20.926Z,100536.38
2022-08-30T18:19:47.565Z,100522.19
2022-08-30T18:22:16.296Z,100531.63
2022-08-30T18:24:43.624Z,100542.31
2022-08-30T18:27:10.145Z,100537.72
2022-08-30T18:29:38.317Z,100536.50
2022-08-30T18:32:05.613Z,100537.72
2022-08-30T18:34:35.686Z,100545.31
2022-08-30T18:37:02.532Z,100545.03
2022-08-30T18:39:34.301Z,100537.47
2022-08-30T18:42:01.462Z,100530.00
2022-08-30T18:44:33.075Z,100547.03
2022-08-30T18:49:48.745Z,100552.50
2022-08-30T18:52:17.060Z,100556.44
2022-08-30T18:54:52.655Z,100531.25
2022-08-30T18:57:20.445Z,100541.16
2022-08-30T18:59:46.969Z,100546.19
2022-08-30T19:02:16.146Z,100543.88
2022-08-30T19:04:45.374Z,100543.56
2022-08-30T19:07:15.044Z,100537.91
2022-08-30T19:09:43.136Z,100543.75
2022-08-30T19:12:11.569Z,100543.16
2022-08-30T19:14:38.794Z,100545.09
2022-08-30T19:17:07.246Z,100534.06
2022-08-30T19:19:34.996Z,100537.91
2022-08-30T19:22:03.937Z,100546.44
2022-08-30T19:24:30.510Z,100551.03
2022-08-30T19:26:59.003Z,100549.31
2022-08-30T19:29:25.626Z,100552.16
2022-08-30T19:31:52.958Z,100545.97
2022-08-30T19:34:19.577Z,100553.41
2022-08-30T19:36:48.557Z,100552.09
2022-08-30T19:39:15.229Z,100554.78
2022-08-30T19:41:42.047Z,100560.91
2022-08-30T19:44:08.715Z,100560.13
2022-08-30T19:46:36.485Z,100550.97
2022-08-30T19:49:05.104Z,100559.94
2022-08-30T19:51:31.786Z,100557.59
2022-08-30T19:54:00.168Z,100561.47
2022-08-30T19:56:26.842Z,100562.22
2022-08-30T19:58:53.687Z,100566.84
2022-08-30T20:01:33.024Z,100549.38
2022-08-30T20:04:02.073Z,100560.91
2022-08-30T20:06:29.952Z,100559.56
2022-08-30T20:08:57.634Z,100568.66
2022-08-30T20:11:25.238Z,100557.34
2022-08-30T20:13:51.922Z,100558.38
2022-08-30T20:16:18.802Z,100560.81
2022-08-30T20:18:46.163Z,100552.72
2022-08-30T20:21:14.498Z,100553.97
2022-08-30T20:23:43.092Z,100537.44
2022-08-30T20:24:29.543Z,100543.38
2022-08-30T20:26:12.377Z,100554.44
2022-08-30T20:28:40.217Z,100554.63
2022-08-30T20:31:08.132Z,100554.00
2022-08-30T20:33:39.371Z,100545.63
2022-08-30T20:36:07.927Z,100554.88
2022-08-30T20:38:34.472Z,100559.97
2022-08-30T20:41:02.815Z,100553.88
2022-08-30T20:43:30.690Z,100554.31
2022-08-30T20:45:57.547Z,100542.19
2022-08-30T20:48:28.613Z,100557.22
2022-08-30T20:50:55.191Z,100555.09
2022-08-30T20:53:21.793Z,100550.84
2022-08-30T20:55:48.363Z,100557.19
2022-08-30T20:58:15.389Z,100568.06
2022-08-30T21:00:45.718Z,100564.09
2022-08-30T21:03:26.111Z,100562.06
2022-08-30T21:05:54.607Z,100571.19
2022-08-30T21:08:21.268Z,100561.09
2022-08-30T21:10:47.967Z,100570.63
2022-08-30T21:13:14.573Z,100579.13
2022-08-30T21:15:45.906Z,100574.63
2022-08-30T21:18:13.900Z,100561.16
2022-08-30T21:20:40.994Z,100575.94
2022-08-30T21:23:07.556Z,100574.28
2022-08-30T21:25:34.422Z,100565.56
2022-08-30T21:28:01.291Z,100572.03
2022-08-30T21:30:29.111Z,100568.97
2022-08-30T21:33:00.087Z,100567.94
2022-08-30T21:35:47.737Z,100569.31
2022-08-30T21:38:14.805Z,100581.94
2022-08-30T21:40:41.572Z,100565.75
2022-08-30T21:43:08.359Z,100575.38
2022-08-30T21:45:39.456Z,100581.03
2022-08-30T21:48:06.182Z,100573.13
2022-08-30T21:50:33.116Z,100580.16
2022-08-30T21:53:00.153Z,100547.00
2022-08-30T21:55:26.748Z,100573.91
2022-08-30T21:57:55.187Z,100575.28
2022-08-30T22:00:22.130Z,100587.72
2022-08-30T22:02:50.689Z,100578.47
2022-08-30T22:05:20.054Z,100588.44
2022-08-30T22:07:46.661Z,100584.34
2022-08-30T22:10:13.769Z,100580.41
2022-08-30T22:12:40.517Z,100574.84
2022-08-30T22:15:09.276Z,100578.00
2022-08-30T22:17:36.019Z,100578.22
2022-08-30T22:20:04.139Z,100569.53
2022-08-30T22:22:30.835Z,100567.47
2022-08-30T22:24:57.442Z,100571.00
2022-08-30T22:27:24.287Z,100562.25
2022-08-30T22:29:50.856Z,100562.59
2022-08-30T22:32:17.617Z,100564.31
2022-08-30T22:34:47.157Z,100567.94
2022-08-30T22:37:13.723Z,100570.31
2022-08-30T22:39:40.291Z,100567.38
2022-08-30T22:42:09.176Z,100560.81
2022-08-30T22:44:36.108Z,100569.97
2022-08-30T22:47:02.740Z,100567.72
2022-08-30T22:49:29.501Z,100580.28
2022-08-30T22:51:56.088Z,100572.13
2022-08-30T22:54:22.721Z,100575.50
2022-08-30T22:56:50.029Z,100561.38
2022-08-30T22:59:16.673Z,100586.28
2022-08-30T23:01:43.797Z,100569.31
2022-08-30T23:04:12.038Z,100572.81
2022-08-30T23:06:39.541Z,100576.53
2022-08-30T23:09:07.080Z,100576.97
2022-08-30T23:11:33.968Z,100568.84
2022-08-30T23:14:02.203Z,100577.19
2022-08-30T23:16:28.925Z,100580.47
2022-08-30T23:18:55.643Z,100579.00
2022-08-30T23:21:26.232Z,100574.81
2022-08-30T23:24:13.192Z,100582.47
2022-08-30T23:26:59.364Z,100578.78
2022-08-30T23:29:44.791Z,100578.34
2022-08-30T23:32:30.050Z,100559.81
2022-08-30T23:35:15.033Z,100571.06
2022-08-30T23:38:00.011Z,100557.97
2022-08-30T23:40:45.339Z,100572.69
2022-08-30T23:43:30.922Z,100568.16
2022-08-30T23:46:18.931Z,100570.66
2022-08-30T23:49:05.896Z,100568.50
2022-08-30T23:51:50.700Z,100570.31
2022-08-30T23:54:35.716Z,100569.19
2022-08-30T23:57:23.652Z,100574.94
